Time;durP1;ratioP1;P1;durP2;ratioP2;P2;SDS_P1;SDS_P2;PMS_P1;PMS_P2;Temp;Humidity;BMP_temperature;BMP_pressure;BME280_temperature;BME280_humidity;BME280_pressure;Samples;Min_cycle;Max_cycle;Signal;HPM_P1;HPM_P2
2022/06/12 00:01:10;;;;;;;;;;;15.60;99.90;;;;;;4917119;29;19911;-57
2022/06/12 00:03:36;;;;;;;;;;;15.80;99.90;;;;;;4924253;29;19918;-57
2022/06/12 00:06:02;;;;;;;;;;;15.80;99.90;;;;;;4920126;29;19915;-58
2022/06/12 00:08:29;;;;;;;;;;;15.50;99.90;;;;;;4923879;29;19911;-58
2022/06/12 00:10:55;;;;;;;;;;;15.20;99.90;;;;;;4925791;29;19910;-57
2022/06/12 00:13:23;;;;;;;;;;;15.10;99.90;;;;;;4922624;29;19910;-58
2022/06/12 00:15:49;;;;;;;;;;;15.00;99.90;;;;;;4917111;29;19921;-57
2022/06/12 00:18:14;;;;;;;;;;;14.90;99.90;;;;;;4921778;29;19910;-57
2022/06/12 00:20:40;;;;;;;;;;;15.10;99.90;;;;;;4923975;29;19970;-58
2022/06/12 00:23:08;;;;;;;;;;;15.10;99.90;;;;;;4920904;29;20572;-57
2022/06/12 00:25:33;;;;;;;;;;;15.40;99.90;;;;;;4925280;29;19954;-57
2022/06/12 00:27:59;;;;;;;;;;;15.30;99.90;;;;;;4926129;29;19954;-57
2022/06/12 00:30:25;;;;;;;;;;;15.30;99.90;;;;;;4923748;29;20013;-58
2022/06/12 00:32:52;;;;;;;;;;;15.10;99.90;;;;;;4926047;29;19908;-58
2022/06/12 00:35:20;;;;;;;;;;;15.00;99.90;;;;;;4923530;29;19914;-58
2022/06/12 00:37:46;;;;;;;;;;;15.10;99.90;;;;;;4923394;29;19915;-58
2022/06/12 00:40:12;;;;;;;;;;;15.10;99.90;;;;;;4922089;29;20006;-58
2022/06/12 00:42:43;;;;;;;;;;;15.00;99.90;;;;;;4924246;29;20024;-58
2022/06/12 00:45:27;;;;;;;;;;;15.00;99.90;;;;;;4920994;29;19915;-57
2022/06/12 00:47:57;;;;;;;;;;;15.10;99.90;;;;;;4923043;29;19957;-58
2022/06/12 00:50:23;;;;;;;;;;;15.50;99.90;;;;;;4920943;29;20383;-58
2022/06/12 00:52:50;;;;;;;;;;;15.60;99.90;;;;;;4921183;29;19926;-58
2022/06/12 00:55:18;;;;;;;;;;;15.50;99.90;;;;;;4923324;29;19911;-58
2022/06/12 00:57:44;;;;;;;;;;;15.30;99.90;;;;;;4922024;29;19911;-58
2022/06/12 01:00:12;;;;;;;;;;;15.30;99.90;;;;;;4923251;29;20268;-57
2022/06/12 01:02:38;;;;;;;;;;;15.40;99.90;;;;;;4922183;29;19917;-57
2022/06/12 01:07:52;;;;;;;;;;;15.30;99.90;;;;;;4927478;29;19973;-57
2022/06/12 01:10:19;;;;;;;;;;;15.20;99.90;;;;;;4925665;29;20422;-58
2022/06/12 01:12:48;;;;;;;;;;;15.20;99.90;;;;;;4924778;29;19941;-58
2022/06/12 01:15:16;;;;;;;;;;;15.10;99.90;;;;;;4922898;29;19934;-57
2022/06/12 01:17:43;;;;;;;;;;;15.00;99.90;;;;;;4926171;29;19911;-58
2022/06/12 01:20:10;;;;;;;;;;;14.90;99.90;;;;;;4926265;29;20641;-57
2022/06/12 01:22:55;;;;;;;;;;;15.30;99.90;;;;;;4922326;29;19917;-58
2022/06/12 01:25:21;;;;;;;;;;;15.50;99.90;;;;;;4918550;29;19926;-57
2022/06/12 01:28:05;;;;;;;;;;;15.20;99.90;;;;;;4926748;29;19911;-58
2022/06/12 01:30:37;;;;;;;;;;;15.10;99.90;;;;;;4925965;29;19918;-58
2022/06/12 01:33:07;;;;;;;;;;;15.10;99.90;;;;;;4926822;29;19906;-57
2022/06/12 01:35:46;;;;;;;;;;;14.90;99.90;;;;;;4920789;29;20419;-57
2022/06/12 01:38:26;;;;;;;;;;;14.80;99.90;;;;;;4927476;29;20446;-58
2022/06/12 01:40:58;;;;;;;;;;;14.70;99.90;;;;;;4924506;29;19911;-58
2022/06/12 01:43:37;;;;;;;;;;;15.10;99.90;;;;;;4925655;29;19911;-58
2022/06/12 01:46:21;;;;;;;;;;;15.30;99.90;;;;;;4925164;29;20013;-58
2022/06/12 01:49:05;;;;;;;;;;;15.00;99.90;;;;;;4920031;29;19993;-58
2022/06/12 01:51:33;;;;;;;;;;;14.70;99.90;;;;;;4924692;29;19915;-58
2022/06/12 01:54:04;;;;;;;;;;;14.60;99.90;;;;;;4922674;29;20359;-57
2022/06/12 01:56:44;;;;;;;;;;;14.80;99.90;;;;;;4926724;29;19915;-58
2022/06/12 01:59:12;;;;;;;;;;;15.00;99.90;;;;;;4927893;29;19937;-58
2022/06/12 02:02:01;;;;;;;;;;;14.80;99.90;;;;;;4919829;29;19993;-58
2022/06/12 02:04:39;;;;;;;;;;;14.80;99.90;;;;;;4927153;29;20046;-58
2022/06/12 02:07:21;;;;;;;;;;;15.10;99.90;;;;;;4924298;29;19919;-58
2022/06/12 02:09:49;;;;;;;;;;;14.80;99.90;;;;;;4925846;29;20005;-57
2022/06/12 02:15:08;;;;;;;;;;;14.40;99.90;;;;;;4923165;29;19914;-58
2022/06/12 02:17:36;;;;;;;;;;;14.00;99.90;;;;;;4923803;29;19911;-58
2022/06/12 02:20:04;;;;;;;;;;;14.00;99.90;;;;;;4929956;29;20005;-57
2022/06/12 02:22:31;;;;;;;;;;;13.90;99.90;;;;;;4920466;29;19923;-58
2022/06/12 02:25:09;;;;;;;;;;;13.70;99.90;;;;;;4923323;29;19921;-58
2022/06/12 02:27:44;;;;;;;;;;;13.60;99.90;;;;;;4924774;29;20224;-58
2022/06/12 02:30:10;;;;;;;;;;;13.50;99.90;;;;;;4923793;29;20370;-58
2022/06/12 02:32:42;;;;;;;;;;;13.30;99.90;;;;;;4923577;29;19910;-58
2022/06/12 02:35:13;;;;;;;;;;;13.30;99.90;;;;;;4924446;29;19907;-57
2022/06/12 02:37:42;;;;;;;;;;;13.20;99.90;;;;;;4921270;29;19957;-58
2022/06/12 02:40:16;;;;;;;;;;;13.10;99.90;;;;;;4925827;29;20359;-57
2022/06/12 02:42:44;;;;;;;;;;;13.20;99.90;;;;;;4922967;29;20397;-58
2022/06/12 02:45:23;;;;;;;;;;;13.20;99.90;;;;;;4926933;29;20438;-58
2022/06/12 02:47:49;;;;;;;;;;;13.30;99.90;;;;;;4923164;29;19915;-57
2022/06/12 02:50:16;;;;;;;;;;;13.10;99.90;;;;;;4926502;29;19911;-57
2022/06/12 02:52:58;;;;;;;;;;;13.10;99.90;;;;;;4921804;29;20541;-57
2022/06/12 02:55:33;;;;;;;;;;;13.00;99.90;;;;;;4923773;29;19915;-57
2022/06/12 02:58:06;;;;;;;;;;;12.80;99.90;;;;;;4922831;29;19911;-57
2022/06/12 03:00:34;;;;;;;;;;;12.70;99.90;;;;;;4928325;29;20001;-57
2022/06/12 03:03:03;;;;;;;;;;;12.70;99.90;;;;;;4924103;29;20422;-57
2022/06/12 03:05:30;;;;;;;;;;;12.70;99.90;;;;;;4922671;29;19919;-57
2022/06/12 03:08:00;;;;;;;;;;;12.60;99.90;;;;;;4925772;29;20342;-57
2022/06/12 03:10:31;;;;;;;;;;;12.50;99.90;;;;;;4920900;29;20529;-58
2022/06/12 03:12:56;;;;;;;;;;;12.40;99.90;;;;;;4924587;29;19910;-58
2022/06/12 03:15:31;;;;;;;;;;;12.30;99.90;;;;;;4925168;29;20506;-58
2022/06/12 03:17:58;;;;;;;;;;;12.20;99.90;;;;;;4928879;29;19914;-57
2022/06/12 03:20:25;;;;;;;;;;;12.20;99.90;;;;;;4922788;29;19911;-58
2022/06/12 03:22:58;;;;;;;;;;;12.30;99.90;;;;;;4923546;29;20009;-57
2022/06/12 03:25:23;;;;;;;;;;;12.20;99.90;;;;;;4921501;29;19915;-58
2022/06/12 03:27:55;;;;;;;;;;;12.20;99.90;;;;;;4919637;29;19977;-58
2022/06/12 03:30:21;;;;;;;;;;;12.00;99.90;;;;;;4920843;29;19911;-58
2022/06/12 03:32:51;;;;;;;;;;;12.00;99.90;;;;;;4922829;29;19978;-57
2022/06/12 03:35:17;;;;;;;;;;;11.90;99.90;;;;;;4923763;29;19911;-58
2022/06/12 03:37:49;;;;;;;;;;;12.00;99.90;;;;;;4924744;29;19945;-57
2022/06/12 03:40:27;;;;;;;;;;;12.00;99.90;;;;;;4922496;29;19917;-57
2022/06/12 03:43:07;;;;;;;;;;;11.90;99.90;;;;;;4924046;29;19911;-58
2022/06/12 03:45:38;;;;;;;;;;;11.90;99.90;;;;;;4919258;29;19915;-58
2022/06/12 03:48:06;;;;;;;;;;;12.10;99.90;;;;;;4924337;29;19977;-57
2022/06/12 03:50:41;;;;;;;;;;;12.40;99.90;;;;;;4923028;29;19911;-57
2022/06/12 03:53:10;;;;;;;;;;;12.70;99.90;;;;;;4923661;29;19925;-58
2022/06/12 03:58:30;;;;;;;;;;;12.60;99.90;;;;;;4924085;29;20271;-58
2022/06/12 04:00:57;;;;;;;;;;;12.40;99.90;;;;;;4920013;29;19961;-57
2022/06/12 04:03:31;;;;;;;;;;;12.20;99.90;;;;;;4921311;29;19921;-58
2022/06/12 04:05:58;;;;;;;;;;;12.20;99.90;;;;;;4923828;29;20009;-57
2022/06/12 04:08:44;;;;;;;;;;;12.10;99.90;;;;;;4921259;29;20002;-57
2022/06/12 04:11:10;;;;;;;;;;;12.10;99.90;;;;;;4925086;29;19915;-58
2022/06/12 04:13:39;;;;;;;;;;;12.10;99.90;;;;;;4921799;29;19911;-58
2022/06/12 04:16:08;;;;;;;;;;;12.10;99.90;;;;;;4924788;29;19984;-57
2022/06/12 04:18:34;;;;;;;;;;;12.20;99.90;;;;;;4927366;29;19910;-57
2022/06/12 04:21:04;;;;;;;;;;;12.30;99.90;;;;;;4919017;29;20383;-57
2022/06/12 04:23:39;;;;;;;;;;;12.40;99.90;;;;;;4920647;29;19947;-57
2022/06/12 04:26:13;;;;;;;;;;;12.40;99.90;;;;;;4922452;29;20327;-58
2022/06/12 04:28:41;;;;;;;;;;;12.40;99.90;;;;;;4924813;29;19954;-58
2022/06/12 04:31:17;;;;;;;;;;;12.50;99.90;;;;;;4921712;29;19999;-58
2022/06/12 04:33:45;;;;;;;;;;;12.60;99.90;;;;;;4922569;29;19934;-58
2022/06/12 04:36:11;;;;;;;;;;;12.60;99.90;;;;;;4925426;29;19914;-58
2022/06/12 04:38:37;;;;;;;;;;;12.70;99.90;;;;;;4927353;29;19913;-57
2022/06/12 04:41:03;;;;;;;;;;;12.70;99.90;;;;;;4925651;29;19911;-57
2022/06/12 04:43:29;;;;;;;;;;;12.80;99.90;;;;;;4926741;29;19916;-58
2022/06/12 04:45:55;;;;;;;;;;;12.90;99.90;;;;;;4926386;29;19915;-57
2022/06/12 04:48:26;;;;;;;;;;;13.00;99.90;;;;;;4927777;29;20050;-57
2022/06/12 04:50:51;;;;;;;;;;;13.10;99.90;;;;;;4924886;29;19919;-57
2022/06/12 04:53:17;;;;;;;;;;;13.20;99.90;;;;;;4927078;29;19943;-57
2022/06/12 04:55:43;;;;;;;;;;;13.20;99.90;;;;;;4927165;29;19915;-57
2022/06/12 04:58:09;;;;;;;;;;;13.40;99.90;;;;;;4925021;29;19938;-57
2022/06/12 05:00:35;;;;;;;;;;;13.50;99.90;;;;;;4926208;29;20394;-57
2022/06/12 05:03:01;;;;;;;;;;;13.70;99.90;;;;;;4925020;29;19915;-58
2022/06/12 05:05:27;;;;;;;;;;;14.10;99.90;;;;;;4927861;29;20357;-57
2022/06/12 05:07:53;;;;;;;;;;;14.50;99.90;;;;;;4927735;29;19917;-58
2022/06/12 05:10:18;;;;;;;;;;;14.80;99.90;;;;;;4925906;29;19941;-57
2022/06/12 05:12:44;;;;;;;;;;;15.00;99.90;;;;;;4926640;29;20275;-58
2022/06/12 05:15:12;;;;;;;;;;;15.10;99.90;;;;;;4926217;29;19915;-58
2022/06/12 05:17:39;;;;;;;;;;;15.30;99.90;;;;;;4931874;29;20277;-56
2022/06/12 05:20:05;;;;;;;;;;;15.50;99.90;;;;;;4933644;29;19915;-57
2022/06/12 05:22:30;;;;;;;;;;;15.60;99.90;;;;;;4916416;29;19919;-57
2022/06/12 05:24:55;;;;;;;;;;;15.70;99.90;;;;;;4929611;29;19950;-57
2022/06/12 05:27:22;;;;;;;;;;;15.80;99.90;;;;;;4927106;29;20399;-57
2022/06/12 05:29:48;;;;;;;;;;;15.90;99.90;;;;;;4927988;29;19957;-57
2022/06/12 05:32:16;;;;;;;;;;;15.90;99.90;;;;;;4923798;29;19918;-58
2022/06/12 05:34:42;;;;;;;;;;;16.00;99.90;;;;;;4928917;29;19922;-57
2022/06/12 05:37:08;;;;;;;;;;;16.00;99.90;;;;;;4927796;29;19918;-57
2022/06/12 05:39:34;;;;;;;;;;;16.10;99.90;;;;;;4924738;29;19911;-57
2022/06/12 05:41:59;;;;;;;;;;;16.10;99.90;;;;;;4927745;29;19907;-57
2022/06/12 05:44:25;;;;;;;;;;;16.10;99.90;;;;;;4925697;29;19911;-56
2022/06/12 05:46:50;;;;;;;;;;;16.10;99.90;;;;;;4928337;29;19955;-58
2022/06/12 05:49:16;;;;;;;;;;;16.20;99.90;;;;;;4923618;29;19950;-57
2022/06/12 05:51:42;;;;;;;;;;;16.30;99.90;;;;;;4922872;29;20006;-57
2022/06/12 05:54:07;;;;;;;;;;;16.30;99.90;;;;;;4927497;29;20111;-58
2022/06/12 05:56:33;;;;;;;;;;;16.40;99.90;;;;;;4919280;29;20376;-58
2022/06/12 05:58:59;;;;;;;;;;;16.50;99.90;;;;;;4934611;29;19910;-58
2022/06/12 06:01:26;;;;;;;;;;;16.50;99.90;;;;;;4924101;29;19911;-56
2022/06/12 06:03:52;;;;;;;;;;;16.60;99.90;;;;;;4922304;29;20061;-58
2022/06/12 06:06:23;;;;;;;;;;;16.70;99.90;;;;;;4927521;29;20005;-57
2022/06/12 06:08:49;;;;;;;;;;;16.70;99.90;;;;;;4923798;29;20283;-57
2022/06/12 06:11:15;;;;;;;;;;;16.80;99.90;;;;;;4926335;29;19911;-57
2022/06/12 06:13:40;;;;;;;;;;;16.80;99.90;;;;;;4922626;29;19922;-58
2022/06/12 06:16:07;;;;;;;;;;;16.80;99.90;;;;;;4927413;29;19911;-57
2022/06/12 06:18:33;;;;;;;;;;;16.90;99.90;;;;;;4923995;29;20028;-58
2022/06/12 06:20:59;;;;;;;;;;;16.90;99.90;;;;;;4923415;29;20758;-58
2022/06/12 06:23:24;;;;;;;;;;;17.10;99.90;;;;;;4924059;29;19954;-58
2022/06/12 06:25:50;;;;;;;;;;;17.20;99.90;;;;;;4924990;29;19918;-57
2022/06/12 06:28:15;;;;;;;;;;;17.20;99.90;;;;;;4927292;29;19910;-58
2022/06/12 06:30:41;;;;;;;;;;;17.20;99.90;;;;;;4922505;29;19911;-58
2022/06/12 06:33:07;;;;;;;;;;;17.30;99.90;;;;;;4924912;29;19917;-58
2022/06/12 06:35:33;;;;;;;;;;;17.40;99.90;;;;;;4925219;29;20335;-58
2022/06/12 06:37:59;;;;;;;;;;;17.50;99.90;;;;;;4925771;29;19934;-58
2022/06/12 06:40:26;;;;;;;;;;;17.50;99.90;;;;;;4927380;29;19911;-57
2022/06/12 06:42:52;;;;;;;;;;;17.50;99.90;;;;;;4925872;29;19958;-57
2022/06/12 06:48:02;;;;;;;;;;;17.60;99.90;;;;;;4927419;29;19917;-57
2022/06/12 06:50:29;;;;;;;;;;;17.60;99.90;;;;;;4925560;29;19919;-57
2022/06/12 06:52:54;;;;;;;;;;;17.70;99.90;;;;;;4924921;29;19958;-57
2022/06/12 06:55:20;;;;;;;;;;;17.70;99.90;;;;;;4925451;29;20422;-58
2022/06/12 06:57:46;;;;;;;;;;;17.70;99.90;;;;;;4923212;29;20363;-57
2022/06/12 07:00:17;;;;;;;;;;;17.70;99.90;;;;;;4926364;29;19911;-58
2022/06/12 07:02:42;;;;;;;;;;;17.70;99.90;;;;;;4921924;29;19914;-58
2022/06/12 07:05:08;;;;;;;;;;;17.90;99.90;;;;;;4923102;29;19914;-58
2022/06/12 07:07:34;;;;;;;;;;;17.90;99.90;;;;;;4923670;29;20557;-57
2022/06/12 07:10:01;;;;;;;;;;;18.10;99.90;;;;;;4921849;29;20002;-58
2022/06/12 07:12:26;;;;;;;;;;;18.20;99.90;;;;;;4925333;29;19934;-57
2022/06/12 07:14:52;;;;;;;;;;;18.20;99.90;;;;;;4922916;29;19961;-58
2022/06/12 07:17:17;;;;;;;;;;;18.30;99.90;;;;;;4923820;29;19910;-58
2022/06/12 07:19:43;;;;;;;;;;;18.50;99.90;;;;;;4930230;29;20371;-57
2022/06/12 07:22:09;;;;;;;;;;;18.80;99.90;;;;;;4922632;29;19922;-58
2022/06/12 07:24:34;;;;;;;;;;;18.70;99.90;;;;;;4923737;29;19910;-58
2022/06/12 07:27:00;;;;;;;;;;;18.60;99.90;;;;;;4920703;29;19926;-57
2022/06/12 07:29:25;;;;;;;;;;;18.70;99.90;;;;;;4926161;29;19911;-57
2022/06/12 07:31:51;;;;;;;;;;;18.60;99.90;;;;;;4924950;29;19961;-57
2022/06/12 07:34:16;;;;;;;;;;;18.50;99.90;;;;;;4921849;29;20178;-58
2022/06/12 07:36:43;;;;;;;;;;;18.70;99.90;;;;;;4923916;29;19945;-58
2022/06/12 07:39:12;;;;;;;;;;;18.80;99.90;;;;;;4922145;29;19972;-57
2022/06/12 07:41:38;;;;;;;;;;;18.80;99.90;;;;;;4925031;29;20521;-58
2022/06/12 07:44:04;;;;;;;;;;;18.70;99.90;;;;;;4922645;29;20002;-58
2022/06/12 07:46:30;;;;;;;;;;;18.70;99.90;;;;;;4911536;29;19911;-57
2022/06/12 07:48:55;;;;;;;;;;;18.70;99.90;;;;;;4925205;29;20766;-58
2022/06/12 07:51:21;;;;;;;;;;;18.90;99.90;;;;;;4920407;29;19923;-57
2022/06/12 07:53:47;;;;;;;;;;;19.00;99.90;;;;;;4925026;29;19954;-58
2022/06/12 07:56:13;;;;;;;;;;;19.20;99.90;;;;;;4927911;29;20275;-57
2022/06/12 07:58:40;;;;;;;;;;;19.10;99.90;;;;;;4924613;29;19913;-57
2022/06/12 08:01:08;;;;;;;;;;;19.20;99.90;;;;;;4924464;29;19951;-57
2022/06/12 08:03:34;;;;;;;;;;;19.10;99.90;;;;;;4902018;29;20589;-57
2022/06/12 08:05:59;;;;;;;;;;;19.20;99.90;;;;;;4925880;29;20014;-57
2022/06/12 08:08:25;;;;;;;;;;;19.50;99.90;;;;;;4918865;29;19914;-57
2022/06/12 08:10:51;;;;;;;;;;;19.80;99.90;;;;;;4920003;29;19911;-57
2022/06/12 08:13:17;;;;;;;;;;;20.40;99.90;;;;;;4922985;29;19910;-57
2022/06/12 08:15:44;;;;;;;;;;;20.70;99.90;;;;;;4926066;29;19911;-57
2022/06/12 08:18:10;;;;;;;;;;;20.90;99.90;;;;;;4925278;29;19921;-57
2022/06/12 08:20:36;;;;;;;;;;;21.20;99.90;;;;;;4923312;29;19919;-57
2022/06/12 08:23:05;;;;;;;;;;;21.50;99.70;;;;;;4914241;29;20026;-57
2022/06/12 08:25:32;;;;;;;;;;;22.00;99.20;;;;;;4919028;29;19918;-57
2022/06/12 08:27:57;;;;;;;;;;;21.90;98.40;;;;;;4917615;29;19911;-57
2022/06/12 08:30:23;;;;;;;;;;;22.40;98.10;;;;;;4922544;29;19915;-57
2022/06/12 08:32:50;;;;;;;;;;;22.70;98.20;;;;;;4916081;29;19915;-57
2022/06/12 08:35:21;;;;;;;;;;;22.50;96.80;;;;;;4926780;29;19915;-57
2022/06/12 08:37:47;;;;;;;;;;;22.70;97.70;;;;;;4927029;29;19938;-58
2022/06/12 08:40:21;;;;;;;;;;;23.50;96.00;;;;;;4926044;29;19997;-57
2022/06/12 08:42:54;;;;;;;;;;;23.50;95.10;;;;;;4931694;29;19907;-57
2022/06/12 08:45:26;;;;;;;;;;;23.90;94.10;;;;;;4924225;29;20003;-58
2022/06/12 08:47:58;;;;;;;;;;;24.00;92.90;;;;;;4922042;29;20371;-58
2022/06/12 08:50:35;;;;;;;;;;;23.40;92.90;;;;;;4920973;29;19914;-58
2022/06/12 08:53:17;;;;;;;;;;;22.90;92.90;;;;;;4927830;29;20639;-57
2022/06/12 08:55:52;;;;;;;;;;;22.10;93.40;;;;;;4925845;29;19954;-57
2022/06/12 08:58:21;;;;;;;;;;;22.30;94.10;;;;;;4923972;29;20561;-57
2022/06/12 09:00:46;;;;;;;;;;;23.10;93.00;;;;;;4916224;29;19966;-56
2022/06/12 09:03:17;;;;;;;;;;;23.00;93.50;;;;;;4929139;29;20370;-57
2022/06/12 09:05:49;;;;;;;;;;;23.60;93.20;;;;;;4924585;29;19970;-57
2022/06/12 09:08:21;;;;;;;;;;;23.80;92.30;;;;;;4923172;29;19915;-58
2022/06/12 09:10:53;;;;;;;;;;;24.20;92.10;;;;;;4916810;29;19989;-57
2022/06/12 09:13:27;;;;;;;;;;;24.30;91.90;;;;;;4917990;29;19918;-57
2022/06/12 09:15:53;;;;;;;;;;;24.80;91.30;;;;;;4924916;29;19910;-57
2022/06/12 09:18:18;;;;;;;;;;;24.20;90.70;;;;;;4923799;29;19919;-58
2022/06/12 09:20:49;;;;;;;;;;;24.40;92.00;;;;;;4919321;29;19911;-57
2022/06/12 09:23:27;;;;;;;;;;;24.60;90.30;;;;;;4920774;29;19926;-58
2022/06/12 09:26:11;;;;;;;;;;;23.80;91.10;;;;;;4914586;29;20009;-57
2022/06/12 09:28:51;;;;;;;;;;;23.90;91.40;;;;;;4915347;29;19918;-57
2022/06/12 09:31:25;;;;;;;;;;;23.50;91.60;;;;;;4917491;29;20001;-57
2022/06/12 09:34:26;;;;;;;;;;;23.90;91.70;;;;;;4913440;29;19938;-57
2022/06/12 09:40:02;;;;;;;;;;;25.40;84.30;;;;;;4923386;29;20335;-57
2022/06/12 09:42:34;;;;;;;;;;;25.20;86.60;;;;;;4919228;29;20422;-57
2022/06/12 09:45:14;;;;;;;;;;;25.00;84.40;;;;;;4913169;29;20006;-57
2022/06/12 09:47:44;;;;;;;;;;;25.30;86.60;;;;;;4912967;29;19915;-57
2022/06/12 09:50:29;;;;;;;;;;;25.80;84.70;;;;;;4913302;29;19993;-57
2022/06/12 09:52:54;;;;;;;;;;;25.90;82.20;;;;;;4914425;29;19982;-57
2022/06/12 09:55:40;;;;;;;;;;;26.00;82.20;;;;;;4920919;29;20072;-57
2022/06/12 09:58:15;;;;;;;;;;;26.40;82.60;;;;;;4915539;29;20433;-57
2022/06/12 10:00:56;;;;;;;;;;;25.90;82.90;;;;;;4926488;29;19911;-57
2022/06/12 10:03:31;;;;;;;;;;;24.90;79.90;;;;;;4921502;29;19908;-57
2022/06/12 10:06:21;;;;;;;;;;;25.40;81.10;;;;;;4927163;29;19966;-57
2022/06/12 10:08:51;;;;;;;;;;;25.70;79.70;;;;;;4924769;29;19911;-57
2022/06/12 10:11:22;;;;;;;;;;;25.80;76.70;;;;;;4929256;29;20278;-57
2022/06/12 10:13:59;;;;;;;;;;;26.00;76.20;;;;;;4921674;29;19933;-57
2022/06/12 10:16:28;;;;;;;;;;;26.20;73.20;;;;;;4922510;29;19978;-57
2022/06/12 10:19:12;;;;;;;;;;;25.50;69.30;;;;;;4919291;29;19915;-57
2022/06/12 10:21:38;;;;;;;;;;;25.00;68.60;;;;;;4921791;29;19982;-58
2022/06/12 10:24:05;;;;;;;;;;;24.80;69.90;;;;;;4923477;29;19966;-57
2022/06/12 10:26:32;;;;;;;;;;;25.40;69.60;;;;;;4921740;29;19966;-58
2022/06/12 10:29:03;;;;;;;;;;;25.70;68.30;;;;;;4924759;29;20294;-57
2022/06/12 10:31:30;;;;;;;;;;;25.10;69.20;;;;;;4925501;29;19918;-57
2022/06/12 10:34:16;;;;;;;;;;;25.20;69.10;;;;;;4923879;29;19910;-57
2022/06/12 10:36:42;;;;;;;;;;;26.10;70.90;;;;;;4924635;29;20635;-57
2022/06/12 10:39:10;;;;;;;;;;;27.50;68.10;;;;;;4919802;29;19911;-57
2022/06/12 10:41:44;;;;;;;;;;;27.50;68.10;;;;;;4920632;29;20291;-58
2022/06/12 10:44:25;;;;;;;;;;;27.60;66.60;;;;;;4920510;29;19961;-58
2022/06/12 10:46:51;;;;;;;;;;;26.80;64.10;;;;;;4922610;29;20473;-57
2022/06/12 10:49:18;;;;;;;;;;;26.60;64.90;;;;;;4924366;29;19910;-57
2022/06/12 10:51:47;;;;;;;;;;;26.80;66.60;;;;;;4919592;29;19915;-57
2022/06/12 10:54:15;;;;;;;;;;;27.40;68.70;;;;;;4923328;29;19921;-58
2022/06/12 10:56:52;;;;;;;;;;;27.80;66.40;;;;;;4921038;29;19975;-57
2022/06/12 10:59:36;;;;;;;;;;;27.90;64.20;;;;;;4923421;29;19911;-56
2022/06/12 11:02:02;;;;;;;;;;;28.10;64.80;;;;;;4920048;29;19915;-57
2022/06/12 11:04:36;;;;;;;;;;;26.70;65.70;;;;;;4922270;29;20198;-57
2022/06/12 11:07:09;;;;;;;;;;;26.50;66.40;;;;;;4918201;29;19999;-57
2022/06/12 11:09:35;;;;;;;;;;;26.80;65.60;;;;;;4922172;29;19921;-58
2022/06/12 11:12:12;;;;;;;;;;;27.70;63.40;;;;;;4918412;29;19915;-58
2022/06/12 11:14:38;;;;;;;;;;;28.00;64.40;;;;;;4918328;29;19983;-57
2022/06/12 11:17:15;;;;;;;;;;;27.80;64.40;;;;;;4923585;29;19918;-57
2022/06/12 11:19:56;;;;;;;;;;;28.80;64.20;;;;;;4919503;29;20669;-57
2022/06/12 11:22:24;;;;;;;;;;;28.30;62.90;;;;;;4924711;29;19915;-57
2022/06/12 11:24:56;;;;;;;;;;;28.20;63.20;;;;;;4923913;29;19961;-57
2022/06/12 11:27:24;;;;;;;;;;;29.00;62.70;;;;;;4923108;29;19918;-57
2022/06/12 11:30:12;;;;;;;;;;;28.40;62.40;;;;;;4921996;29;19983;-57
2022/06/12 11:32:50;;;;;;;;;;;27.70;63.20;;;;;;4920916;29;19982;-57
2022/06/12 11:35:34;;;;;;;;;;;28.40;62.40;;;;;;4922536;29;19966;-57
2022/06/12 11:38:00;;;;;;;;;;;28.20;62.80;;;;;;4921212;29;20486;-57
2022/06/12 11:40:44;;;;;;;;;;;27.90;63.50;;;;;;4921054;29;19914;-57
2022/06/12 11:43:31;;;;;;;;;;;28.00;63.60;;;;;;4919968;29;19982;-57
2022/06/12 11:46:08;;;;;;;;;;;28.70;62.10;;;;;;4918353;29;19915;-58
2022/06/12 11:48:43;;;;;;;;;;;29.30;61.90;;;;;;4919943;29;19932;-58
2022/06/12 11:51:16;;;;;;;;;;;28.40;62.60;;;;;;4919700;29;19926;-57
2022/06/12 11:54:05;;;;;;;;;;;29.50;63.20;;;;;;4921309;29;19914;-57
2022/06/12 11:56:39;;;;;;;;;;;30.50;61.50;;;;;;4925477;29;19926;-57
2022/06/12 11:59:05;;;;;;;;;;;30.20;62.80;;;;;;4923969;29;19910;-57
2022/06/12 12:01:57;;;;;;;;;;;29.70;61.50;;;;;;4925239;29;19968;-57
2022/06/12 12:04:49;;;;;;;;;;;28.90;63.90;;;;;;4924529;29;19906;-57
2022/06/12 12:07:22;;;;;;;;;;;29.60;63.90;;;;;;4925818;29;19918;-57
2022/06/12 12:09:57;;;;;;;;;;;29.30;62.60;;;;;;4922897;29;20367;-58
2022/06/12 12:12:30;;;;;;;;;;;29.80;64.40;;;;;;4919911;29;19907;-57
2022/06/12 12:14:57;;;;;;;;;;;30.80;65.00;;;;;;4923662;29;19917;-58
2022/06/12 12:17:26;;;;;;;;;;;32.50;61.60;;;;;;4921479;29;19911;-57
2022/06/12 12:20:18;;;;;;;;;;;31.80;60.30;;;;;;4919959;29;19919;-57
2022/06/12 12:22:54;;;;;;;;;;;31.00;60.70;;;;;;4913860;29;19915;-57
2022/06/12 12:25:36;;;;;;;;;;;29.50;63.10;;;;;;4923135;29;20454;-57
2022/06/12 12:28:05;;;;;;;;;;;28.10;61.80;;;;;;4915705;29;19937;-57
2022/06/12 12:30:33;;;;;;;;;;;27.10;64.40;;;;;;4925003;29;19915;-57
2022/06/12 12:33:00;;;;;;;;;;;26.90;65.20;;;;;;4924458;29;19911;-57
2022/06/12 12:41:13;;;;;;;;;;;28.80;60.60;;;;;;4916048;29;19922;-57
2022/06/12 12:43:49;;;;;;;;;;;28.90;59.20;;;;;;4916417;29;20422;-58
2022/06/12 12:46:14;;;;;;;;;;;29.40;60.10;;;;;;4913190;29;19919;-57
2022/06/12 12:48:41;;;;;;;;;;;29.50;59.90;;;;;;4916637;29;19911;-57
2022/06/12 12:51:07;;;;;;;;;;;30.30;60.70;;;;;;4920633;29;19926;-57
2022/06/12 12:53:35;;;;;;;;;;;31.00;60.60;;;;;;4918306;29;19915;-57
2022/06/12 12:56:05;;;;;;;;;;;31.40;60.10;;;;;;4920297;29;19957;-57
2022/06/12 12:58:33;;;;;;;;;;;29.70;60.00;;;;;;4918292;29;19918;-58
2022/06/12 13:01:03;;;;;;;;;;;28.90;62.90;;;;;;4921274;29;20588;-57
2022/06/12 13:03:31;;;;;;;;;;;29.70;62.10;;;;;;4927391;29;19918;-58
2022/06/12 13:05:57;;;;;;;;;;;30.00;61.50;;;;;;4926258;29;19919;-57
2022/06/12 13:08:41;;;;;;;;;;;29.30;62.40;;;;;;4926297;29;20041;-57
2022/06/12 13:11:07;;;;;;;;;;;29.90;62.00;;;;;;4921012;29;19911;-57
2022/06/12 13:13:38;;;;;;;;;;;30.30;61.40;;;;;;4922815;29;19918;-57
2022/06/12 13:16:22;;;;;;;;;;;29.70;62.00;;;;;;4917737;29;20631;-57
2022/06/12 13:18:48;;;;;;;;;;;30.10;60.80;;;;;;4919861;29;19917;-57
2022/06/12 13:21:30;;;;;;;;;;;29.20;62.50;;;;;;4917875;29;19919;-57
2022/06/12 13:24:14;;;;;;;;;;;28.10;64.30;;;;;;4921844;29;20264;-57
2022/06/12 13:26:41;;;;;;;;;;;26.60;66.10;;;;;;4922841;29;19926;-57
2022/06/12 13:29:12;;;;;;;;;;;26.90;66.60;;;;;;4929986;29;19981;-57
2022/06/12 13:31:38;;;;;;;;;;;28.60;67.10;;;;;;4918872;29;19911;-57
2022/06/12 13:34:04;;;;;;;;;;;29.50;63.70;;;;;;4922187;29;19911;-57
2022/06/12 13:36:32;;;;;;;;;;;29.10;63.70;;;;;;4923767;29;19981;-57
2022/06/12 13:38:59;;;;;;;;;;;28.30;65.00;;;;;;4926482;29;20446;-57
2022/06/12 13:41:34;;;;;;;;;;;28.80;65.50;;;;;;4926679;29;19935;-57
2022/06/12 13:44:18;;;;;;;;;;;29.50;64.60;;;;;;4924549;29;19940;-57
2022/06/12 13:46:43;;;;;;;;;;;30.60;63.40;;;;;;4920701;29;20490;-57
2022/06/12 13:49:27;;;;;;;;;;;30.70;63.60;;;;;;4912367;29;19955;-57
2022/06/12 13:51:54;;;;;;;;;;;32.60;62.40;;;;;;4913928;29;19919;-58
2022/06/12 13:54:21;;;;;;;;;;;33.20;62.80;;;;;;4912856;29;19915;-58
2022/06/12 13:56:49;;;;;;;;;;;32.30;60.10;;;;;;4913792;29;19958;-57
2022/06/12 13:59:16;;;;;;;;;;;30.40;61.30;;;;;;4915523;29;19982;-57
2022/06/12 14:01:42;;;;;;;;;;;29.10;63.80;;;;;;4918772;29;19911;-57
2022/06/12 14:04:18;;;;;;;;;;;28.70;64.20;;;;;;4904451;29;19922;-57
2022/06/12 14:06:44;;;;;;;;;;;29.00;63.40;;;;;;4920665;29;19922;-58
2022/06/12 14:09:24;;;;;;;;;;;28.70;63.60;;;;;;4925464;29;20691;-57
2022/06/12 14:11:50;;;;;;;;;;;28.30;64.90;;;;;;4923543;29;19921;-57
2022/06/12 14:14:34;;;;;;;;;;;29.10;64.30;;;;;;4917817;29;20382;-57
2022/06/12 14:17:00;;;;;;;;;;;29.40;62.70;;;;;;4905406;29;19989;-58
2022/06/12 14:19:26;;;;;;;;;;;31.60;61.60;;;;;;4917230;29;20375;-57
2022/06/12 14:22:22;;;;;;;;;;;32.20;61.00;;;;;;4915528;29;19960;-57
2022/06/12 14:24:56;;;;;;;;;;;32.20;60.00;;;;;;4911482;29;20022;-58
2022/06/12 14:27:24;;;;;;;;;;;33.00;60.00;;;;;;4920896;29;19918;-57
2022/06/12 14:29:50;;;;;;;;;;;33.70;59.30;;;;;;4919950;29;19914;-57
2022/06/12 14:32:23;;;;;;;;;;;32.40;59.70;;;;;;4920026;29;19911;-57
2022/06/12 14:34:58;;;;;;;;;;;32.60;58.00;;;;;;4919978;29;19946;-57
2022/06/12 14:37:25;;;;;;;;;;;33.00;59.10;;;;;;4915729;29;19915;-57
2022/06/12 14:39:51;;;;;;;;;;;30.90;59.30;;;;;;4913400;29;20389;-57
2022/06/12 14:42:18;;;;;;;;;;;29.40;61.50;;;;;;4915548;29;20002;-57
2022/06/12 14:44:43;;;;;;;;;;;28.30;63.40;;;;;;4916628;29;20267;-57
2022/06/12 14:47:16;;;;;;;;;;;27.80;64.20;;;;;;4913702;29;19996;-57
2022/06/12 14:49:41;;;;;;;;;;;28.00;64.10;;;;;;4924003;29;19954;-57
2022/06/12 14:52:07;;;;;;;;;;;29.00;63.30;;;;;;4917315;29;19961;-57
2022/06/12 14:54:33;;;;;;;;;;;28.90;62.40;;;;;;4916952;29;19943;-57